地図

経路データ

SID SEASON NUMBER BASIN SUBBASIN NAME ISO_TIME NATURE LAT LON WMO_WIND WMO_PRES WMO_AGENCY TRACK_TYPE DIST2LAND LANDFALL IFLAG USA_AGENCY USA_ATCF_ID USA_LAT USA_LON USA_RECORD USA_STATUS USA_WIND USA_PRES USA_SSHS USA_R34_NE USA_R34_SE USA_R34_SW USA_R34_NW USA_R50_NE USA_R50_SE USA_R50_SW USA_R50_NW USA_R64_NE USA_R64_SE USA_R64_SW USA_R64_NW USA_POCI USA_ROCI USA_RMW USA_EYE TOKYO_LAT TOKYO_LON TOKYO_GRADE TOKYO_WIND TOKYO_PRES TOKYO_R50_DIR TOKYO_R50_LONG TOKYO_R50_SHORT TOKYO_R30_DIR TOKYO_R30_LONG TOKYO_R30_SHORT TOKYO_LAND CMA_LAT CMA_LON CMA_CAT CMA_WIND CMA_PRES HKO_LAT HKO_LON HKO_CAT HKO_WIND HKO_PRES NEWDELHI_LAT NEWDELHI_LON NEWDELHI_GRADE NEWDELHI_WIND NEWDELHI_PRES NEWDELHI_CI NEWDELHI_DP NEWDELHI_POCI REUNION_LAT REUNION_LON REUNION_TYPE REUNION_WIND REUNION_PRES REUNION_TNUM REUNION_CI REUNION_RMW REUNION_R34_NE REUNION_R34_SE REUNION_R34_SW REUNION_R34_NW REUNION_R50_NE REUNION_R50_SE REUNION_R50_SW REUNION_R50_NW REUNION_R64_NE REUNION_R64_SE REUNION_R64_SW REUNION_R64_NW BOM_LAT BOM_LON BOM_TYPE BOM_WIND BOM_PRES BOM_TNUM BOM_CI BOM_RMW BOM_R34_NE BOM_R34_SE BOM_R34_SW BOM_R34_NW BOM_R50_NE BOM_R50_SE BOM_R50_SW BOM_R50_NW BOM_R64_NE BOM_R64_SE BOM_R64_SW BOM_R64_NW BOM_ROCI BOM_POCI BOM_EYE BOM_POS_METHOD BOM_PRES_METHOD NADI_LAT NADI_LON NADI_CAT NADI_WIND NADI_PRES WELLINGTON_LAT WELLINGTON_LON WELLINGTON_WIND WELLINGTON_PRES DS824_LAT DS824_LON DS824_STAGE DS824_WIND DS824_PRES TD9636_LAT TD9636_LON TD9636_STAGE TD9636_WIND TD9636_PRES TD9635_LAT TD9635_LON TD9635_WIND TD9635_PRES TD9635_ROCI NEUMANN_LAT NEUMANN_LON NEUMANN_CLASS NEUMANN_WIND NEUMANN_PRES MLC_LAT MLC_LON MLC_CLASS MLC_WIND MLC_PRES USA_GUST BOM_GUST BOM_GUST_PER REUNION_GUST REUNION_GUST_PER USA_SEAHGT USA_SEARAD_NE USA_SEARAD_SE USA_SEARAD_SW USA_SEARAD_NW STORM_SPEED STORM_DIR
1958273N16260 1958 92 EP MM NOT_NAMED 1958-09-30 00:00:00 TS 15.6000 -100.300 75 hurdat_epa main 138 134 O________OO___ hurdat_epa EP101958 15.6000 -100.300 HU 75 1 15.6000 -100.300 TC 75 15.6000 -100.300 4 5 293
1958273N16260 1958 92 EP MM NOT_NAMED 1958-09-30 03:00:00 TS 15.6997 -100.550 main 140 140 P________PP___ EP101958 15.6976 -100.550 HU 75 1 15.6976 -100.550 TC 75 15.7080 -100.550 4 5 293
1958273N16260 1958 92 EP MM NOT_NAMED 1958-09-30 06:00:00 TS 15.8025 -100.800 75 hurdat_epa main 148 140 O________OP___ hurdat_epa EP101958 15.8000 -100.800 HU 75 1 15.8000 -100.800 TC 75 15.8127 -100.800 4 5 293
1958273N16260 1958 92 EP MM NOT_NAMED 1958-09-30 09:00:00 TS 15.9082 -101.050 main 144 140 P________PP___ EP101958 15.9075 -101.050 HU 75 1 15.9075 -101.050 TC 75 15.9111 -101.050 4 5 292
1958273N16260 1958 92 EP MM NOT_NAMED 1958-09-30 12:00:00 TS 16.0000 -101.300 75 hurdat_epa main 144 140 O________OO___ hurdat_epa EP101958 16.0000 -101.300 HU 75 1 16.0000 -101.300 TC 75 16.0000 -101.300 4 5 287
1958273N16260 1958 92 EP MM NOT_NAMED 1958-09-30 15:00:00 TS 16.0556 -101.550 main 144 144 P________PP___ EP101958 16.0500 -101.550 HU 75 1 16.0500 -101.550 TC 75 16.0780 -101.550 4 5 283
1958273N16260 1958 92 EP MM NOT_NAMED 1958-09-30 18:00:00 TS 16.1100 -101.800 75 hurdat_epa main 153 149 O________OP___ hurdat_epa EP101958 16.1000 -101.800 HU 75 1 16.1000 -101.800 TC 75 16.1499 -101.800 4 5 287
1958273N16260 1958 92 EP MM NOT_NAMED 1958-09-30 21:00:00 TS 16.1983 -102.050 main 162 161 P________PP___ EP101958 16.1925 -102.050 HU 75 1 16.1925 -102.050 TC 75 16.2218 -102.050 4 5 292
1958273N16260 1958 92 EP MM NOT_NAMED 1958-10-01 00:00:00 TS 16.3000 -102.300 75 hurdat_epa main 168 163 O________OO___ hurdat_epa EP101958 16.3000 -102.300 HU 75 1 16.3000 -102.300 TC 75 16.3000 -102.300 4 5 293
1958273N16260 1958 92 EP MM NOT_NAMED 1958-10-01 03:00:00 TS 16.3993 -102.548 main 168 162 P________PP___ EP101958 16.4000 -102.550 HU 75 1 16.4000 -102.550 TC 75 16.3967 -102.542 4 5 293
1958273N16260 1958 92 EP MM NOT_NAMED 1958-10-01 06:00:00 TS 16.5000 -102.797 75 hurdat_epa main 165 158 O________OP___ hurdat_epa EP101958 16.5000 -102.800 HU 75 1 16.5000 -102.800 TC 75 16.4998 -102.785 4 5 293
1958273N16260 1958 92 EP MM NOT_NAMED 1958-10-01 09:00:00 TS 16.6005 -103.041 main 162 158 P________PP___ EP101958 16.5999 -103.043 HU 75 1 16.5999 -103.043 TC 75 16.6029 -103.036 4 5 293
1958273N16260 1958 92 EP MM NOT_NAMED 1958-10-01 12:00:00 TS 16.7000 -103.300 75 hurdat_epa main 162 154 O________OO___ hurdat_epa EP101958 16.7000 -103.300 HU 75 1 16.7000 -103.300 TC 75 16.7000 -103.300 4 6 291
1958273N16260 1958 92 EP MM NOT_NAMED 1958-10-01 15:00:00 TS 16.8016 -103.594 main 162 158 P________PP___ EP101958 16.8075 -103.592 HU 75 1 16.8075 -103.592 TC 75 16.7782 -103.598 4 6 288
1958273N16260 1958 92 EP MM NOT_NAMED 1958-10-01 18:00:00 TS 16.8900 -103.902 75 hurdat_epa main 162 162 O________OP___ hurdat_epa EP101958 16.9000 -103.900 HU 75 1 16.9000 -103.900 TC 75 16.8501 -103.908 4 6 283
1958273N16260 1958 92 EP MM NOT_NAMED 1958-10-01 21:00:00 TS 16.9444 -104.215 main 173 163 P________PP___ EP101958 16.9500 -104.215 HU 75 1 16.9500 -104.215 TC 75 16.9220 -104.214 4 6 281
1958273N16260 1958 92 EP MM NOT_NAMED 1958-10-02 00:00:00 TS 17.0000 -104.500 75 hurdat_epa main 179 177 O________OO___ hurdat_epa EP101958 17.0000 -104.500 HU 75 1 17.0000 -104.500 TC 75 17.0000 -104.500 4 5 287
1958273N16260 1958 92 EP MM NOT_NAMED 1958-10-02 03:00:00 TS 17.0859 -104.710 main 184 184 P________PP___ EP101958 17.0924 -104.708 HU 75 1 17.0924 -104.708 TC 75 17.0598 -104.719 4 4 296
1958273N16260 1958 92 EP MM NOT_NAMED 1958-10-02 06:00:00 TS 17.1864 -104.904 75 hurdat_epa main 192 192 O________OP___ hurdat_epa EP101958 17.2000 -104.900 HU 75 1 17.2000 -104.900 TC 75 17.1318 -104.921 4 4 295
1958273N16260 1958 92 EP MM NOT_NAMED 1958-10-02 09:00:00 TS 17.2695 -105.124 main 203 203 P________PP___ EP101958 17.2774 -105.120 HU 75 1 17.2774 -105.120 TC 75 17.2379 -105.138 4 5 294
1958273N16260 1958 92 EP MM NOT_NAMED 1958-10-02 12:00:00 TS 17.4000 -105.400 75 hurdat_epa main 211 202 O________OO___ hurdat_epa EP101958 17.4000 -105.400 HU 75 1 17.4000 -105.400 TC 75 17.4000 -105.400 4 7 299
1958273N16260 1958 92 EP MM NOT_NAMED 1958-10-02 15:00:00 TS 17.6170 -105.775 main 207 198 P________PP___ EP101958 17.6125 -105.778 HU 75 1 17.6125 -105.778 TC 75 17.6348 -105.765 4 9 304
1958273N16260 1958 92 EP MM NOT_NAMED 1958-10-02 18:00:00 TS 17.9051 -106.195 75 hurdat_epa main 207 207 O________OP___ hurdat_epa EP101958 17.9000 -106.200 HU 75 1 17.9000 -106.200 TC 75 17.9256 -106.177 4 10 308
1958273N16260 1958 92 EP MM NOT_NAMED 1958-10-02 21:00:00 TS 18.2387 -106.612 main 215 206 P________PP___ EP101958 18.2350 -106.615 HU 75 1 18.2350 -106.615 TC 75 18.2535 -106.600 4 10 312
1958273N16260 1958 92 EP MM NOT_NAMED 1958-10-03 00:00:00 TS 18.6000 -107.000 75 hurdat_epa main 216 214 O________OO___ hurdat_epa EP101958 18.6000 -107.000 HU 75 1 18.6000 -107.000 TC 75 18.6000 -107.000 4 10 317
1958273N16260 1958 92 EP MM NOT_NAMED 1958-10-03 03:00:00 TS 18.9429 -107.317 main 225 219 P________PP___ EP101958 18.9499 -107.315 HU 75 1 18.9499 -107.315 TC 75 18.9149 -107.326 4 9 320
1958273N16260 1958 92 EP MM NOT_NAMED 1958-10-03 06:00:00 TS 19.2894 -107.605 75 hurdat_epa main 233 232 O________OP___ hurdat_epa EP101958 19.3000 -107.600 HU 75 1 19.3000 -107.600 TC 75 19.2469 -107.624 4 9 322
1958273N16260 1958 92 EP MM NOT_NAMED 1958-10-03 09:00:00 TS 19.6350 -107.896 main 246 242 P________PP___ EP101958 19.6424 -107.893 HU 75 1 19.6424 -107.893 TC 75 19.6055 -107.910 4 9 322
1958273N16260 1958 92 EP MM NOT_NAMED 1958-10-03 12:00:00 TS 20.0000 -108.200 75 hurdat_epa main 264 264 O________OO___ hurdat_epa EP101958 20.0000 -108.200 HU 75 1 20.0000 -108.200 TC 75 20.0000 -108.200 4 10 320
1958273N16260 1958 92 EP MM NOT_NAMED 1958-10-03 15:00:00 TS 20.3741 -108.548 main 291 252 P________PP___ EP101958 20.3700 -108.550 HU 75 1 20.3700 -108.550 TC 75 20.3906 -108.538 4 10 321
1958273N16260 1958 92 EP MM NOT_NAMED 1958-10-03 18:00:00 TS 20.8046 -108.896 75 hurdat_epa main 252 189 O________OP___ hurdat_epa EP101958 20.8000 -108.900 HU 75 1 20.8000 -108.900 TC 75 20.8229 -108.880 4 11 326
1958273N16260 1958 92 EP MM NOT_NAMED 1958-10-03 21:00:00 TS 21.3017 -109.220 main 189 115 P________PP___ EP101958 21.2975 -109.223 HU 75 1 21.2975 -109.223 TC 75 21.3187 -109.207 4 12 333
1958273N16260 1958 92 EP MM NOT_NAMED 1958-10-04 00:00:00 TS 21.9000 -109.500 75 hurdat_epa main 115 35 O________OO___ hurdat_epa EP101958 21.9000 -109.500 HU 75 1 21.9000 -109.500 TC 75 21.9000 -109.500 4 14 340
1958273N16260 1958 92 EP MM NOT_NAMED 1958-10-04 03:00:00 TS 22.6093 -109.720 main 35 0 P________PP___ EP101958 22.6124 -109.715 HU 75 1 22.6124 -109.715 TC 75 22.5966 -109.740 4 16 346
1958273N16260 1958 92 EP MM NOT_NAMED 1958-10-04 06:00:00 TS 23.3950 -109.909 75 hurdat_epa main 0 0 O________OP___ hurdat_epa EP101958 23.4000 -109.900 HU 75 1 23.4000 -109.900 TC 75 23.3748 -109.946 4 16 347
1958273N16260 1958 92 EP MM NOT_NAMED 1958-10-04 09:00:00 TS 24.2041 -110.106 main 0 0 P________PP___ EP101958 24.2075 -110.100 HU 75 1 24.2075 -110.100 TC 75 24.1905 -110.128 4 17 347
1958273N16260 1958 92 EP MM NOT_NAMED 1958-10-04 12:00:00 TS 25.0000 -110.300 75 hurdat_epa main 46 46 O________OO___ hurdat_epa EP101958 25.0000 -110.300 HU 75 1 25.0000 -110.300 TC 75 25.0000 -110.300 4 16 347
1958273N16260 1958 92 EP MM NOT_NAMED 1958-10-04 15:00:00 TS 25.7197 -110.501 main 60 60 P________PP___ EP101958 25.7075 -110.508 HU 75 1 25.7075 -110.508 TC 75 25.7687 -110.472 4 15 346
1958273N16260 1958 92 EP MM NOT_NAMED 1958-10-04 18:00:00 TS 26.4158 -110.691 75 hurdat_epa main 69 38 O________OP___ hurdat_epa EP101958 26.4000 -110.700 HU 75 1 26.4000 -110.700 TC 75 26.5000 -110.646 4 15 347
1958273N16260 1958 92 EP MM NOT_NAMED 1958-10-04 21:00:00 TS 27.1496 -110.860 main 44 9 P________PP___ EP101958 27.1425 -110.865 HU 75 1 27.1425 -110.865 TC 70 27.2063 -110.822 4 15 350
1958273N16260 1958 92 EP MM NOT_NAMED 1958-10-05 00:00:00 TS 27.9000 -111.000 75 hurdat_epa main 9 0 O________OO___ hurdat_epa EP101958 27.9000 -111.000 HU 75 1 27.9000 -111.000 TC 65 27.9000 -111.000 4 15 351
1958273N16260 1958 92 EP MM NOT_NAMED 1958-10-05 03:00:00 TS 28.6425 -111.122 main 0 0 P________P____ EP101958 28.6425 -111.122 HU 60 0 28.6425 -111.122 TC 55 4 15 353
1958273N16260 1958 92 EP MM NOT_NAMED 1958-10-05 06:00:00 MX 29.4000 -111.200 45 hurdat_epa main 0 0 O________O____ hurdat_epa EP101958 29.4000 -111.200 TS 45 0 29.4000 -111.200 45 4 16 356
1958273N16260 1958 92 EP MM NOT_NAMED 1958-10-05 09:00:00 MX 30.2150 -111.230 main 0 0 P________P____ EP101958 30.2150 -111.230 TS 35 0 30.2150 -111.230 40 4 16 0
1958273N16260 1958 92 EP MM NOT_NAMED 1958-10-05 12:00:00 MX 31.0000 -111.200 25 hurdat_epa main 0 0 O________O____ hurdat_epa EP101958 31.0000 -111.200 TD 25 -1 31.0000 -111.200 35 15 3
1958273N16260 1958 92 EP MM NOT_NAMED 1958-10-05 15:00:00 MX 31.6874 -111.145 main 0 0 P________P____ EP101958 31.6874 -111.145 TD 22 -1 31.6874 -111.145 32 13 7
1958273N16260 1958 92 EP MM NOT_NAMED 1958-10-05 18:00:00 DS 32.3000 -111.000 20 hurdat_epa main 0 0 O________O____ hurdat_epa EP101958 32.3000 -111.000 LO 20 -3 32.3000 -111.000 30 13 14
1958273N16260 1958 92 EP MM NOT_NAMED 1958-10-05 21:00:00 DS 32.9093 -110.797 main 0 0 P________P____ EP101958 32.9093 -110.797 LO 20 -3 32.9093 -110.797 27 12 25
1958273N16260 1958 92 EP MM NOT_NAMED 1958-10-06 00:00:00 DS 33.4000 -110.400 20 hurdat_epa main 0 0 O________O____ hurdat_epa EP101958 33.4000 -110.400 LO 20 -3 33.4000 -110.400 25 12 45
1958273N16260 1958 92 EP MM NOT_NAMED 1958-10-06 03:00:00 DS 33.7383 -109.808 main 0 0 P________P____ EP101958 33.7383 -109.808 LO 20 -3 33.7383 -109.808 22 13 68
1958273N16260 1958 92 EP MM NOT_NAMED 1958-10-06 06:00:00 DS 33.9000 -108.900 20 hurdat_epa main 0 0 O________O____ hurdat_epa EP101958 33.9000 -108.900 LO 20 -3 33.9000 -108.900 20 18 85
1958273N16260 1958 92 EP MM NOT_NAMED 1958-10-06 09:00:00 DS 33.8995 -107.646 main 0 0 P________P____ EP101958 33.8995 -107.646 LO 20 -3 33.8995 -107.646 17 22 93
1958273N16260 1958 92 EP MM NOT_NAMED 1958-10-06 12:00:00 DS 33.8000 -106.200 20 hurdat_epa main 0 O________O____ hurdat_epa EP101958 33.8000 -106.200 LO 20 -3 33.8000 -106.200 15 24 95

IBTrACS Databaseについて

本データベースは、米国NOAAが公開する1842年以降の世界の熱帯低気圧のベストトラックデータアーカイブInternational Best Track Archive for Climate Stewardship (IBTrACS)を、ウェブで閲覧しやすい形式に変換したものです。

最終更新日:2021-12-06